sensor_id;sensor_type;location;lat;lon;timestamp;P1;durP1;ratioP1;P2;durP2;ratioP2
21798;SDS011;24973;47.178;15.316;2023-07-09T00:01:47;9.03;;;5.97;;
21798;SDS011;24973;47.178;15.316;2023-07-09T00:04:36;9.63;;;5.90;;
21798;SDS011;24973;47.178;15.316;2023-07-09T00:07:28;7.33;;;5.73;;
21798;SDS011;24973;47.178;15.316;2023-07-09T00:10:18;8.00;;;6.60;;
21798;SDS011;24973;47.178;15.316;2023-07-09T00:13:08;6.27;;;5.67;;
21798;SDS011;24973;47.178;15.316;2023-07-09T00:15:58;12.23;;;6.43;;
21798;SDS011;24973;47.178;15.316;2023-07-09T00:18:48;9.17;;;6.43;;
21798;SDS011;24973;47.178;15.316;2023-07-09T00:21:37;11.27;;;6.00;;
21798;SDS011;24973;47.178;15.316;2023-07-09T00:24:28;8.50;;;6.07;;
21798;SDS011;24973;47.178;15.316;2023-07-09T00:27:18;9.53;;;5.70;;
21798;SDS011;24973;47.178;15.316;2023-07-09T00:30:08;10.63;;;6.80;;
21798;SDS011;24973;47.178;15.316;2023-07-09T00:33:03;8.17;;;6.63;;
21798;SDS011;24973;47.178;15.316;2023-07-09T00:35:52;11.30;;;6.77;;
21798;SDS011;24973;47.178;15.316;2023-07-09T00:38:41;9.40;;;6.77;;
21798;SDS011;24973;47.178;15.316;2023-07-09T00:41:36;7.43;;;6.67;;
21798;SDS011;24973;47.178;15.316;2023-07-09T00:44:27;11.13;;;7.30;;
21798;SDS011;24973;47.178;15.316;2023-07-09T00:47:31;9.80;;;6.33;;
21798;SDS011;24973;47.178;15.316;2023-07-09T00:50:33;8.87;;;7.00;;
21798;SDS011;24973;47.178;15.316;2023-07-09T00:53:25;10.13;;;6.20;;
21798;SDS011;24973;47.178;15.316;2023-07-09T00:56:16;11.07;;;6.87;;
21798;SDS011;24973;47.178;15.316;2023-07-09T00:59:11;8.30;;;6.63;;
21798;SDS011;24973;47.178;15.316;2023-07-09T01:02:03;7.00;;;6.20;;
21798;SDS011;24973;47.178;15.316;2023-07-09T01:04:55;7.93;;;7.07;;
21798;SDS011;24973;47.178;15.316;2023-07-09T01:07:47;7.97;;;6.50;;
21798;SDS011;24973;47.178;15.316;2023-07-09T01:10:36;10.23;;;6.90;;
21798;SDS011;24973;47.178;15.316;2023-07-09T01:13:26;8.60;;;6.00;;
21798;SDS011;24973;47.178;15.316;2023-07-09T01:16:18;9.90;;;7.07;;
21798;SDS011;24973;47.178;15.316;2023-07-09T01:19:07;12.50;;;7.53;;
21798;SDS011;24973;47.178;15.316;2023-07-09T01:22:02;9.80;;;6.23;;
21798;SDS011;24973;47.178;15.316;2023-07-09T01:24:52;13.10;;;7.17;;
21798;SDS011;24973;47.178;15.316;2023-07-09T01:27:45;7.63;;;6.33;;
21798;SDS011;24973;47.178;15.316;2023-07-09T01:30:35;8.70;;;6.73;;
21798;SDS011;24973;47.178;15.316;2023-07-09T01:33:25;14.27;;;7.33;;
21798;SDS011;24973;47.178;15.316;2023-07-09T01:36:15;11.23;;;6.97;;
21798;SDS011;24973;47.178;15.316;2023-07-09T01:39:11;9.97;;;6.17;;
21798;SDS011;24973;47.178;15.316;2023-07-09T01:42:00;8.73;;;7.10;;
21798;SDS011;24973;47.178;15.316;2023-07-09T01:44:49;11.43;;;7.67;;
21798;SDS011;24973;47.178;15.316;2023-07-09T01:47:40;10.50;;;6.30;;
21798;SDS011;24973;47.178;15.316;2023-07-09T01:50:29;10.33;;;7.27;;
21798;SDS011;24973;47.178;15.316;2023-07-09T01:53:19;12.07;;;6.27;;
21798;SDS011;24973;47.178;15.316;2023-07-09T01:56:12;8.97;;;7.30;;
21798;SDS011;24973;47.178;15.316;2023-07-09T01:59:01;9.60;;;7.50;;
21798;SDS011;24973;47.178;15.316;2023-07-09T02:01:50;10.60;;;7.93;;
21798;SDS011;24973;47.178;15.316;2023-07-09T02:04:45;11.90;;;7.67;;
21798;SDS011;24973;47.178;15.316;2023-07-09T02:07:34;9.20;;;7.73;;
21798;SDS011;24973;47.178;15.316;2023-07-09T02:10:24;10.80;;;7.37;;
21798;SDS011;24973;47.178;15.316;2023-07-09T02:13:14;8.73;;;6.87;;
21798;SDS011;24973;47.178;15.316;2023-07-09T02:16:04;8.00;;;6.97;;
21798;SDS011;24973;47.178;15.316;2023-07-09T02:18:53;13.87;;;6.33;;
21798;SDS011;24973;47.178;15.316;2023-07-09T02:21:42;7.63;;;6.33;;
21798;SDS011;24973;47.178;15.316;2023-07-09T02:24:31;8.90;;;5.97;;
21798;SDS011;24973;47.178;15.316;2023-07-09T02:27:21;8.13;;;6.90;;
21798;SDS011;24973;47.178;15.316;2023-07-09T02:30:12;6.63;;;5.87;;
21798;SDS011;24973;47.178;15.316;2023-07-09T02:33:02;9.43;;;7.00;;
21798;SDS011;24973;47.178;15.316;2023-07-09T02:35:51;8.23;;;6.30;;
21798;SDS011;24973;47.178;15.316;2023-07-09T02:38:40;8.10;;;6.80;;
21798;SDS011;24973;47.178;15.316;2023-07-09T02:41:29;9.83;;;7.50;;
21798;SDS011;24973;47.178;15.316;2023-07-09T02:44:18;10.77;;;6.90;;
21798;SDS011;24973;47.178;15.316;2023-07-09T02:47:09;7.73;;;7.00;;
21798;SDS011;24973;47.178;15.316;2023-07-09T02:49:58;7.33;;;6.43;;
21798;SDS011;24973;47.178;15.316;2023-07-09T02:52:47;9.17;;;7.30;;
21798;SDS011;24973;47.178;15.316;2023-07-09T02:55:36;9.50;;;7.27;;
21798;SDS011;24973;47.178;15.316;2023-07-09T02:58:25;8.17;;;6.97;;
21798;SDS011;24973;47.178;15.316;2023-07-09T03:01:14;10.90;;;6.80;;
21798;SDS011;24973;47.178;15.316;2023-07-09T03:04:05;8.60;;;7.13;;
21798;SDS011;24973;47.178;15.316;2023-07-09T03:06:55;8.80;;;7.33;;
21798;SDS011;24973;47.178;15.316;2023-07-09T03:09:44;9.23;;;6.57;;
21798;SDS011;24973;47.178;15.316;2023-07-09T03:12:33;19.23;;;8.87;;
21798;SDS011;24973;47.178;15.316;2023-07-09T03:15:22;10.47;;;8.10;;
21798;SDS011;24973;47.178;15.316;2023-07-09T03:18:11;9.70;;;7.20;;
21798;SDS011;24973;47.178;15.316;2023-07-09T03:21:01;9.93;;;6.77;;
21798;SDS011;24973;47.178;15.316;2023-07-09T03:23:51;8.33;;;7.53;;
21798;SDS011;24973;47.178;15.316;2023-07-09T03:26:40;11.17;;;7.90;;
21798;SDS011;24973;47.178;15.316;2023-07-09T03:29:29;9.13;;;7.10;;
21798;SDS011;24973;47.178;15.316;2023-07-09T03:32:18;8.73;;;6.90;;
21798;SDS011;24973;47.178;15.316;2023-07-09T03:35:07;9.27;;;7.20;;
21798;SDS011;24973;47.178;15.316;2023-07-09T03:37:58;12.30;;;7.97;;
21798;SDS011;24973;47.178;15.316;2023-07-09T03:40:49;14.60;;;8.67;;
21798;SDS011;24973;47.178;15.316;2023-07-09T03:43:38;10.67;;;7.53;;
21798;SDS011;24973;47.178;15.316;2023-07-09T03:46:27;13.60;;;8.77;;
21798;SDS011;24973;47.178;15.316;2023-07-09T03:49:16;11.87;;;7.33;;
21798;SDS011;24973;47.178;15.316;2023-07-09T03:52:05;15.73;;;8.10;;
21798;SDS011;24973;47.178;15.316;2023-07-09T03:54:56;9.27;;;7.23;;
21798;SDS011;24973;47.178;15.316;2023-07-09T03:57:47;15.00;;;8.53;;
21798;SDS011;24973;47.178;15.316;2023-07-09T04:00:36;8.20;;;6.90;;
21798;SDS011;24973;47.178;15.316;2023-07-09T04:03:25;11.43;;;7.20;;
21798;SDS011;24973;47.178;15.316;2023-07-09T04:06:14;12.73;;;7.77;;
21798;SDS011;24973;47.178;15.316;2023-07-09T04:09:03;10.17;;;7.57;;
21798;SDS011;24973;47.178;15.316;2023-07-09T04:11:53;12.53;;;8.17;;
21798;SDS011;24973;47.178;15.316;2023-07-09T04:14:42;11.17;;;7.70;;
21798;SDS011;24973;47.178;15.316;2023-07-09T04:17:31;13.73;;;7.40;;
21798;SDS011;24973;47.178;15.316;2023-07-09T04:20:20;11.53;;;7.30;;
21798;SDS011;24973;47.178;15.316;2023-07-09T04:23:10;9.67;;;7.60;;
21798;SDS011;24973;47.178;15.316;2023-07-09T04:25:59;9.47;;;7.40;;
21798;SDS011;24973;47.178;15.316;2023-07-09T04:28:50;8.67;;;7.47;;
21798;SDS011;24973;47.178;15.316;2023-07-09T04:31:40;9.27;;;8.37;;
21798;SDS011;24973;47.178;15.316;2023-07-09T04:34:29;9.50;;;8.20;;
21798;SDS011;24973;47.178;15.316;2023-07-09T04:37:18;7.60;;;6.80;;
21798;SDS011;24973;47.178;15.316;2023-07-09T04:40:07;10.87;;;8.37;;
21798;SDS011;24973;47.178;15.316;2023-07-09T04:42:58;8.87;;;7.53;;
21798;SDS011;24973;47.178;15.316;2023-07-09T04:45:49;13.40;;;7.93;;
21798;SDS011;24973;47.178;15.316;2023-07-09T04:48:38;12.07;;;7.67;;
21798;SDS011;24973;47.178;15.316;2023-07-09T04:51:27;9.57;;;7.93;;
21798;SDS011;24973;47.178;15.316;2023-07-09T04:54:16;11.40;;;7.67;;
21798;SDS011;24973;47.178;15.316;2023-07-09T04:57:05;14.40;;;7.93;;
21798;SDS011;24973;47.178;15.316;2023-07-09T04:59:54;9.17;;;8.10;;
21798;SDS011;24973;47.178;15.316;2023-07-09T05:02:45;10.40;;;8.97;;
21798;SDS011;24973;47.178;15.316;2023-07-09T05:05:34;10.60;;;7.43;;
21798;SDS011;24973;47.178;15.316;2023-07-09T05:08:23;7.90;;;7.10;;
21798;SDS011;24973;47.178;15.316;2023-07-09T05:11:12;9.67;;;7.70;;
21798;SDS011;24973;47.178;15.316;2023-07-09T05:14:02;7.73;;;6.97;;
21798;SDS011;24973;47.178;15.316;2023-07-09T05:16:51;8.20;;;6.77;;
21798;SDS011;24973;47.178;15.316;2023-07-09T05:19:42;10.17;;;7.77;;
21798;SDS011;24973;47.178;15.316;2023-07-09T05:22:31;12.10;;;7.57;;
21798;SDS011;24973;47.178;15.316;2023-07-09T05:25:20;8.80;;;6.77;;
21798;SDS011;24973;47.178;15.316;2023-07-09T05:28:09;7.83;;;6.87;;
21798;SDS011;24973;47.178;15.316;2023-07-09T05:30:58;8.50;;;6.43;;
21798;SDS011;24973;47.178;15.316;2023-07-09T05:33:47;8.20;;;6.50;;
21798;SDS011;24973;47.178;15.316;2023-07-09T05:36:37;8.83;;;6.87;;
21798;SDS011;24973;47.178;15.316;2023-07-09T05:39:27;10.00;;;5.87;;
21798;SDS011;24973;47.178;15.316;2023-07-09T05:42:16;10.03;;;7.40;;
21798;SDS011;24973;47.178;15.316;2023-07-09T05:45:05;8.83;;;6.70;;
21798;SDS011;24973;47.178;15.316;2023-07-09T05:47:55;7.97;;;6.70;;
21798;SDS011;24973;47.178;15.316;2023-07-09T05:50:45;6.87;;;6.13;;
21798;SDS011;24973;47.178;15.316;2023-07-09T05:53:37;12.30;;;7.97;;
21798;SDS011;24973;47.178;15.316;2023-07-09T05:56:26;9.13;;;5.67;;
21798;SDS011;24973;47.178;15.316;2023-07-09T05:59:15;7.67;;;6.53;;
21798;SDS011;24973;47.178;15.316;2023-07-09T06:02:05;10.80;;;6.93;;
21798;SDS011;24973;47.178;15.316;2023-07-09T06:04:57;8.27;;;6.33;;
21798;SDS011;24973;47.178;15.316;2023-07-09T06:07:47;9.27;;;7.17;;
21798;SDS011;24973;47.178;15.316;2023-07-09T06:10:37;11.73;;;7.07;;
21798;SDS011;24973;47.178;15.316;2023-07-09T06:13:30;10.33;;;6.17;;
21798;SDS011;24973;47.178;15.316;2023-07-09T06:16:19;7.33;;;6.60;;
21798;SDS011;24973;47.178;15.316;2023-07-09T06:19:08;8.10;;;6.57;;
21798;SDS011;24973;47.178;15.316;2023-07-09T06:21:58;14.20;;;8.27;;
21798;SDS011;24973;47.178;15.316;2023-07-09T06:24:47;9.30;;;6.63;;
21798;SDS011;24973;47.178;15.316;2023-07-09T06:27:37;9.23;;;7.13;;
21798;SDS011;24973;47.178;15.316;2023-07-09T06:30:27;8.80;;;6.60;;
21798;SDS011;24973;47.178;15.316;2023-07-09T06:33:17;10.33;;;7.10;;
21798;SDS011;24973;47.178;15.316;2023-07-09T06:36:08;8.80;;;7.13;;
21798;SDS011;24973;47.178;15.316;2023-07-09T06:38:57;9.80;;;8.00;;
21798;SDS011;24973;47.178;15.316;2023-07-09T06:41:46;7.33;;;6.63;;
21798;SDS011;24973;47.178;15.316;2023-07-09T06:44:37;8.67;;;6.43;;
21798;SDS011;24973;47.178;15.316;2023-07-09T06:47:26;11.07;;;7.27;;
21798;SDS011;24973;47.178;15.316;2023-07-09T06:50:15;10.60;;;6.67;;
21798;SDS011;24973;47.178;15.316;2023-07-09T06:53:04;7.67;;;5.83;;
21798;SDS011;24973;47.178;15.316;2023-07-09T06:55:53;8.43;;;6.70;;
21798;SDS011;24973;47.178;15.316;2023-07-09T06:58:45;9.33;;;7.87;;
21798;SDS011;24973;47.178;15.316;2023-07-09T07:01:36;9.47;;;6.70;;
21798;SDS011;24973;47.178;15.316;2023-07-09T07:04:25;8.27;;;7.37;;
21798;SDS011;24973;47.178;15.316;2023-07-09T07:07:14;9.00;;;6.83;;
21798;SDS011;24973;47.178;15.316;2023-07-09T07:10:03;8.90;;;6.77;;
21798;SDS011;24973;47.178;15.316;2023-07-09T07:12:53;10.17;;;6.83;;
21798;SDS011;24973;47.178;15.316;2023-07-09T07:15:44;8.53;;;6.80;;
21798;SDS011;24973;47.178;15.316;2023-07-09T07:18:38;11.73;;;6.03;;
21798;SDS011;24973;47.178;15.316;2023-07-09T07:21:27;11.67;;;6.73;;
21798;SDS011;24973;47.178;15.316;2023-07-09T07:24:16;8.33;;;6.23;;
21798;SDS011;24973;47.178;15.316;2023-07-09T07:27:05;8.70;;;6.53;;
21798;SDS011;24973;47.178;15.316;2023-07-09T07:29:55;11.37;;;7.20;;
21798;SDS011;24973;47.178;15.316;2023-07-09T07:32:45;8.47;;;6.83;;
21798;SDS011;24973;47.178;15.316;2023-07-09T07:35:36;8.53;;;7.03;;
21798;SDS011;24973;47.178;15.316;2023-07-09T07:38:33;10.40;;;6.63;;
21798;SDS011;24973;47.178;15.316;2023-07-09T07:41:22;8.33;;;6.80;;
21798;SDS011;24973;47.178;15.316;2023-07-09T07:44:11;9.53;;;6.63;;
21798;SDS011;24973;47.178;15.316;2023-07-09T07:47:00;11.37;;;6.37;;
21798;SDS011;24973;47.178;15.316;2023-07-09T07:49:49;7.60;;;6.17;;
21798;SDS011;24973;47.178;15.316;2023-07-09T07:52:40;12.00;;;7.20;;
21798;SDS011;24973;47.178;15.316;2023-07-09T07:55:29;15.13;;;6.30;;
21798;SDS011;24973;47.178;15.316;2023-07-09T07:58:18;9.70;;;6.77;;
21798;SDS011;24973;47.178;15.316;2023-07-09T08:01:07;8.17;;;6.33;;
21798;SDS011;24973;47.178;15.316;2023-07-09T08:03:56;9.83;;;6.27;;
21798;SDS011;24973;47.178;15.316;2023-07-09T08:06:45;7.77;;;6.90;;
21798;SDS011;24973;47.178;15.316;2023-07-09T08:09:36;8.53;;;6.33;;
21798;SDS011;24973;47.178;15.316;2023-07-09T08:12:25;7.77;;;5.87;;
21798;SDS011;24973;47.178;15.316;2023-07-09T08:15:15;10.17;;;6.57;;
21798;SDS011;24973;47.178;15.316;2023-07-09T08:18:04;10.47;;;7.80;;
21798;SDS011;24973;47.178;15.316;2023-07-09T08:20:53;8.23;;;6.57;;
21798;SDS011;24973;47.178;15.316;2023-07-09T08:23:42;8.73;;;6.13;;
21798;SDS011;24973;47.178;15.316;2023-07-09T08:26:33;5.90;;;5.00;;
21798;SDS011;24973;47.178;15.316;2023-07-09T08:29:24;9.73;;;7.13;;
21798;SDS011;24973;47.178;15.316;2023-07-09T08:32:13;6.23;;;5.53;;
21798;SDS011;24973;47.178;15.316;2023-07-09T08:35:03;7.73;;;6.13;;
21798;SDS011;24973;47.178;15.316;2023-07-09T08:38:12;7.33;;;5.30;;
21798;SDS011;24973;47.178;15.316;2023-07-09T08:41:02;7.07;;;5.43;;
21798;SDS011;24973;47.178;15.316;2023-07-09T08:43:58;5.90;;;4.87;;
21798;SDS011;24973;47.178;15.316;2023-07-09T08:46:59;7.73;;;6.13;;
21798;SDS011;24973;47.178;15.316;2023-07-09T08:49:52;9.20;;;6.50;;
21798;SDS011;24973;47.178;15.316;2023-07-09T08:52:45;7.10;;;6.10;;
21798;SDS011;24973;47.178;15.316;2023-07-09T08:55:36;11.37;;;5.80;;
21798;SDS011;24973;47.178;15.316;2023-07-09T08:58:29;9.00;;;5.93;;
21798;SDS011;24973;47.178;15.316;2023-07-09T09:01:22;7.15;;;5.50;;
21798;SDS011;24973;47.178;15.316;2023-07-09T09:04:13;7.70;;;5.35;;
21798;SDS011;24973;47.178;15.316;2023-07-09T09:07:06;5.90;;;5.03;;
21798;SDS011;24973;47.178;15.316;2023-07-09T09:10:02;4.95;;;4.32;;
21798;SDS011;24973;47.178;15.316;2023-07-09T09:12:56;6.32;;;4.25;;
21798;SDS011;24973;47.178;15.316;2023-07-09T09:15:51;5.03;;;4.13;;
21798;SDS011;24973;47.178;15.316;2023-07-09T09:18:42;4.97;;;3.88;;
21798;SDS011;24973;47.178;15.316;2023-07-09T09:21:32;6.00;;;4.45;;
21798;SDS011;24973;47.178;15.316;2023-07-09T09:24:27;6.70;;;4.90;;
21798;SDS011;24973;47.178;15.316;2023-07-09T09:27:18;4.60;;;4.07;;
21798;SDS011;24973;47.178;15.316;2023-07-09T09:30:08;6.10;;;4.32;;
21798;SDS011;24973;47.178;15.316;2023-07-09T09:33:05;4.80;;;3.80;;
21798;SDS011;24973;47.178;15.316;2023-07-09T09:36:02;5.15;;;4.18;;
21798;SDS011;24973;47.178;15.316;2023-07-09T09:38:53;3.88;;;3.50;;
21798;SDS011;24973;47.178;15.316;2023-07-09T09:41:42;4.43;;;3.40;;
21798;SDS011;24973;47.178;15.316;2023-07-09T09:44:32;6.00;;;4.47;;
21798;SDS011;24973;47.178;15.316;2023-07-09T09:47:21;5.85;;;3.75;;
21798;SDS011;24973;47.178;15.316;2023-07-09T09:50:15;4.53;;;3.67;;
21798;SDS011;24973;47.178;15.316;2023-07-09T09:53:06;4.45;;;3.55;;
21798;SDS011;24973;47.178;15.316;2023-07-09T09:55:56;4.00;;;3.58;;
21798;SDS011;24973;47.178;15.316;2023-07-09T09:58:51;4.22;;;3.55;;
21798;SDS011;24973;47.178;15.316;2023-07-09T10:01:41;3.88;;;3.22;;
21798;SDS011;24973;47.178;15.316;2023-07-09T10:04:30;6.85;;;3.42;;
21798;SDS011;24973;47.178;15.316;2023-07-09T10:07:21;4.10;;;3.50;;
21798;SDS011;24973;47.178;15.316;2023-07-09T10:10:13;7.18;;;4.28;;
21798;SDS011;24973;47.178;15.316;2023-07-09T10:13:09;5.28;;;3.92;;
21798;SDS011;24973;47.178;15.316;2023-07-09T10:16:03;5.35;;;3.95;;
21798;SDS011;24973;47.178;15.316;2023-07-09T10:18:56;5.35;;;3.75;;
21798;SDS011;24973;47.178;15.316;2023-07-09T10:21:51;4.45;;;3.83;;
21798;SDS011;24973;47.178;15.316;2023-07-09T10:24:48;4.05;;;3.55;;
21798;SDS011;24973;47.178;15.316;2023-07-09T10:27:46;4.63;;;3.55;;
21798;SDS011;24973;47.178;15.316;2023-07-09T10:30:51;4.38;;;3.17;;
21798;SDS011;24973;47.178;15.316;2023-07-09T10:33:54;4.63;;;3.63;;
21798;SDS011;24973;47.178;15.316;2023-07-09T10:36:50;3.58;;;3.28;;
21798;SDS011;24973;47.178;15.316;2023-07-09T10:39:50;5.35;;;3.85;;
21798;SDS011;24973;47.178;15.316;2023-07-09T10:42:43;4.53;;;3.92;;
21798;SDS011;24973;47.178;15.316;2023-07-09T10:45:38;5.10;;;3.70;;
21798;SDS011;24973;47.178;15.316;2023-07-09T10:48:32;4.35;;;3.63;;
21798;SDS011;24973;47.178;15.316;2023-07-09T10:51:26;5.18;;;4.57;;
21798;SDS011;24973;47.178;15.316;2023-07-09T10:54:22;4.25;;;3.70;;
21798;SDS011;24973;47.178;15.316;2023-07-09T10:57:23;6.18;;;3.67;;
21798;SDS011;24973;47.178;15.316;2023-07-09T11:00:19;3.97;;;3.58;;
21798;SDS011;24973;47.178;15.316;2023-07-09T11:03:13;4.18;;;3.45;;
21798;SDS011;24973;47.178;15.316;2023-07-09T11:06:09;4.90;;;4.28;;
21798;SDS011;24973;47.178;15.316;2023-07-09T11:09:07;4.60;;;3.65;;
21798;SDS011;24973;47.178;15.316;2023-07-09T11:12:13;7.97;;;4.03;;
21798;SDS011;24973;47.178;15.316;2023-07-09T11:15:07;5.57;;;3.97;;
21798;SDS011;24973;47.178;15.316;2023-07-09T11:18:03;6.57;;;3.75;;
21798;SDS011;24973;47.178;15.316;2023-07-09T11:20:55;8.45;;;5.50;;
21798;SDS011;24973;47.178;15.316;2023-07-09T11:23:49;3.85;;;3.38;;
21798;SDS011;24973;47.178;15.316;2023-07-09T11:26:46;4.97;;;3.60;;
21798;SDS011;24973;47.178;15.316;2023-07-09T11:29:44;7.75;;;4.15;;
21798;SDS011;24973;47.178;15.316;2023-07-09T11:32:44;4.30;;;3.88;;
21798;SDS011;24973;47.178;15.316;2023-07-09T11:35:44;5.70;;;4.00;;
21798;SDS011;24973;47.178;15.316;2023-07-09T11:38:39;4.85;;;3.83;;
21798;SDS011;24973;47.178;15.316;2023-07-09T11:41:38;4.32;;;3.70;;
21798;SDS011;24973;47.178;15.316;2023-07-09T11:44:30;5.68;;;3.67;;
21798;SDS011;24973;47.178;15.316;2023-07-09T11:47:22;5.55;;;4.22;;
21798;SDS011;24973;47.178;15.316;2023-07-09T11:50:21;4.13;;;3.72;;
21798;SDS011;24973;47.178;15.316;2023-07-09T11:53:18;5.65;;;4.30;;
21798;SDS011;24973;47.178;15.316;2023-07-09T11:56:18;4.40;;;3.55;;
21798;SDS011;24973;47.178;15.316;2023-07-09T11:59:08;7.53;;;4.97;;
21798;SDS011;24973;47.178;15.316;2023-07-09T12:01:59;5.70;;;4.57;;
21798;SDS011;24973;47.178;15.316;2023-07-09T12:04:50;4.50;;;3.88;;
21798;SDS011;24973;47.178;15.316;2023-07-09T12:07:40;4.65;;;4.25;;
21798;SDS011;24973;47.178;15.316;2023-07-09T12:10:32;4.40;;;3.53;;
21798;SDS011;24973;47.178;15.316;2023-07-09T12:13:22;4.68;;;4.13;;
21798;SDS011;24973;47.178;15.316;2023-07-09T12:16:18;4.32;;;3.83;;
21798;SDS011;24973;47.178;15.316;2023-07-09T12:19:10;5.55;;;4.03;;
21798;SDS011;24973;47.178;15.316;2023-07-09T12:22:03;5.47;;;3.60;;
21798;SDS011;24973;47.178;15.316;2023-07-09T12:24:58;8.32;;;3.88;;
21798;SDS011;24973;47.178;15.316;2023-07-09T12:27:49;3.58;;;3.28;;
21798;SDS011;24973;47.178;15.316;2023-07-09T12:30:37;4.35;;;3.92;;
21798;SDS011;24973;47.178;15.316;2023-07-09T12:33:29;5.55;;;3.75;;
21798;SDS011;24973;47.178;15.316;2023-07-09T12:36:18;3.63;;;3.17;;
21798;SDS011;24973;47.178;15.316;2023-07-09T12:39:09;5.25;;;3.67;;
21798;SDS011;24973;47.178;15.316;2023-07-09T12:42:01;4.65;;;4.25;;
21798;SDS011;24973;47.178;15.316;2023-07-09T12:44:52;5.45;;;3.80;;
21798;SDS011;24973;47.178;15.316;2023-07-09T12:47:41;4.95;;;3.83;;
21798;SDS011;24973;47.178;15.316;2023-07-09T12:50:32;7.53;;;5.03;;
21798;SDS011;24973;47.178;15.316;2023-07-09T12:53:23;5.18;;;4.40;;
21798;SDS011;24973;47.178;15.316;2023-07-09T12:56:16;4.93;;;4.40;;
21798;SDS011;24973;47.178;15.316;2023-07-09T12:59:07;5.57;;;5.07;;
21798;SDS011;24973;47.178;15.316;2023-07-09T13:02:13;9.10;;;6.05;;
21798;SDS011;24973;47.178;15.316;2023-07-09T13:05:06;6.47;;;5.43;;
21798;SDS011;24973;47.178;15.316;2023-07-09T13:08:05;7.60;;;5.07;;
21798;SDS011;24973;47.178;15.316;2023-07-09T13:11:01;6.00;;;5.30;;
21798;SDS011;24973;47.178;15.316;2023-07-09T13:13:54;5.60;;;4.63;;
21798;SDS011;24973;47.178;15.316;2023-07-09T13:16:44;6.95;;;5.55;;
21798;SDS011;24973;47.178;15.316;2023-07-09T13:19:34;5.40;;;4.90;;
21798;SDS011;24973;47.178;15.316;2023-07-09T13:22:23;5.30;;;4.75;;
21798;SDS011;24973;47.178;15.316;2023-07-09T13:25:12;7.65;;;5.10;;
21798;SDS011;24973;47.178;15.316;2023-07-09T13:28:01;5.57;;;5.03;;
21798;SDS011;24973;47.178;15.316;2023-07-09T13:30:50;6.22;;;4.88;;
21798;SDS011;24973;47.178;15.316;2023-07-09T13:33:41;9.05;;;5.50;;
21798;SDS011;24973;47.178;15.316;2023-07-09T13:36:31;6.22;;;5.18;;
21798;SDS011;24973;47.178;15.316;2023-07-09T13:39:20;5.75;;;5.15;;
21798;SDS011;24973;47.178;15.316;2023-07-09T13:42:10;5.60;;;5.07;;
21798;SDS011;24973;47.178;15.316;2023-07-09T13:45:01;6.10;;;5.05;;
21798;SDS011;24973;47.178;15.316;2023-07-09T13:47:49;5.25;;;4.68;;
21798;SDS011;24973;47.178;15.316;2023-07-09T13:50:39;8.30;;;5.78;;
21798;SDS011;24973;47.178;15.316;2023-07-09T13:53:30;6.28;;;5.28;;
21798;SDS011;24973;47.178;15.316;2023-07-09T13:56:20;7.10;;;5.45;;
21798;SDS011;24973;47.178;15.316;2023-07-09T13:59:12;4.85;;;4.40;;
21798;SDS011;24973;47.178;15.316;2023-07-09T14:02:07;9.05;;;5.05;;
21798;SDS011;24973;47.178;15.316;2023-07-09T14:05:11;5.50;;;4.93;;
21798;SDS011;24973;47.178;15.316;2023-07-09T14:08:01;6.78;;;5.05;;
21798;SDS011;24973;47.178;15.316;2023-07-09T14:10:51;5.93;;;4.93;;
21798;SDS011;24973;47.178;15.316;2023-07-09T14:13:40;7.00;;;5.13;;
21798;SDS011;24973;47.178;15.316;2023-07-09T14:16:29;5.45;;;4.95;;
21798;SDS011;24973;47.178;15.316;2023-07-09T14:19:19;5.30;;;4.80;;
21798;SDS011;24973;47.178;15.316;2023-07-09T14:22:15;5.70;;;4.78;;
21798;SDS011;24973;47.178;15.316;2023-07-09T14:25:15;5.45;;;4.85;;
21798;SDS011;24973;47.178;15.316;2023-07-09T14:28:10;7.20;;;4.60;;
21798;SDS011;24973;47.178;15.316;2023-07-09T14:31:01;5.80;;;4.88;;
21798;SDS011;24973;47.178;15.316;2023-07-09T14:33:50;4.95;;;4.50;;
21798;SDS011;24973;47.178;15.316;2023-07-09T14:36:39;13.27;;;5.38;;
21798;SDS011;24973;47.178;15.316;2023-07-09T14:39:28;5.60;;;5.05;;
21798;SDS011;24973;47.178;15.316;2023-07-09T14:42:17;6.65;;;5.05;;
21798;SDS011;24973;47.178;15.316;2023-07-09T14:45:17;6.68;;;5.00;;
21798;SDS011;24973;47.178;15.316;2023-07-09T14:48:11;5.70;;;5.10;;
21798;SDS011;24973;47.178;15.316;2023-07-09T14:51:04;5.80;;;4.68;;
21798;SDS011;24973;47.178;15.316;2023-07-09T14:54:00;4.82;;;4.32;;
21798;SDS011;24973;47.178;15.316;2023-07-09T14:56:49;6.45;;;5.82;;
21798;SDS011;24973;47.178;15.316;2023-07-09T14:59:39;7.85;;;4.93;;
21798;SDS011;24973;47.178;15.316;2023-07-09T15:02:31;5.13;;;4.63;;
21798;SDS011;24973;47.178;15.316;2023-07-09T15:05:23;5.07;;;4.55;;
21798;SDS011;24973;47.178;15.316;2023-07-09T15:08:15;5.18;;;4.68;;
21798;SDS011;24973;47.178;15.316;2023-07-09T15:11:07;4.95;;;4.45;;
21798;SDS011;24973;47.178;15.316;2023-07-09T15:13:57;5.10;;;4.68;;
21798;SDS011;24973;47.178;15.316;2023-07-09T15:16:46;8.50;;;5.50;;
21798;SDS011;24973;47.178;15.316;2023-07-09T15:19:37;7.20;;;4.55;;
21798;SDS011;24973;47.178;15.316;2023-07-09T15:22:28;6.82;;;5.18;;
21798;SDS011;24973;47.178;15.316;2023-07-09T15:25:20;6.40;;;5.47;;
21798;SDS011;24973;47.178;15.316;2023-07-09T15:28:11;7.03;;;5.25;;
21798;SDS011;24973;47.178;15.316;2023-07-09T15:31:00;6.72;;;5.43;;
21798;SDS011;24973;47.178;15.316;2023-07-09T15:33:49;5.10;;;4.65;;
21798;SDS011;24973;47.178;15.316;2023-07-09T15:36:39;6.00;;;5.40;;
21798;SDS011;24973;47.178;15.316;2023-07-09T15:39:31;5.90;;;4.20;;
21798;SDS011;24973;47.178;15.316;2023-07-09T15:42:20;5.05;;;4.30;;
21798;SDS011;24973;47.178;15.316;2023-07-09T15:45:09;5.60;;;5.10;;
21798;SDS011;24973;47.178;15.316;2023-07-09T15:48:01;5.47;;;4.40;;
21798;SDS011;24973;47.178;15.316;2023-07-09T15:50:53;4.65;;;4.07;;
21798;SDS011;24973;47.178;15.316;2023-07-09T15:53:43;6.45;;;4.22;;
21798;SDS011;24973;47.178;15.316;2023-07-09T15:56:32;5.05;;;4.55;;
21798;SDS011;24973;47.178;15.316;2023-07-09T15:59:25;5.15;;;4.75;;
21798;SDS011;24973;47.178;15.316;2023-07-09T16:02:17;5.38;;;4.88;;
21798;SDS011;24973;47.178;15.316;2023-07-09T16:05:07;5.57;;;5.07;;
21798;SDS011;24973;47.178;15.316;2023-07-09T16:08:06;6.18;;;3.88;;
21798;SDS011;24973;47.178;15.316;2023-07-09T16:10:56;5.68;;;4.70;;
21798;SDS011;24973;47.178;15.316;2023-07-09T16:13:46;6.47;;;5.43;;
21798;SDS011;24973;47.178;15.316;2023-07-09T16:16:35;7.55;;;5.10;;
21798;SDS011;24973;47.178;15.316;2023-07-09T16:19:25;5.50;;;4.15;;
21798;SDS011;24973;47.178;15.316;2023-07-09T16:22:18;6.50;;;5.05;;
21798;SDS011;24973;47.178;15.316;2023-07-09T16:25:12;6.47;;;4.63;;
21798;SDS011;24973;47.178;15.316;2023-07-09T16:28:05;7.03;;;5.03;;
21798;SDS011;24973;47.178;15.316;2023-07-09T16:31:00;5.25;;;4.75;;
21798;SDS011;24973;47.178;15.316;2023-07-09T16:33:48;5.30;;;4.70;;
21798;SDS011;24973;47.178;15.316;2023-07-09T16:36:37;6.95;;;4.90;;
21798;SDS011;24973;47.178;15.316;2023-07-09T16:39:27;6.93;;;4.72;;
21798;SDS011;24973;47.178;15.316;2023-07-09T16:42:17;5.55;;;4.82;;
21798;SDS011;24973;47.178;15.316;2023-07-09T16:45:08;6.90;;;5.15;;
21798;SDS011;24973;47.178;15.316;2023-07-09T16:47:58;5.65;;;4.82;;
21798;SDS011;24973;47.178;15.316;2023-07-09T16:50:47;8.23;;;5.38;;
21798;SDS011;24973;47.178;15.316;2023-07-09T16:53:37;8.43;;;4.80;;